createdAt,value
2019-02-15T00:01:31.166Z,6.10
2019-02-15T00:04:00.107Z,6.00
2019-02-15T00:06:29.042Z,6.00
2019-02-15T00:08:57.846Z,6.00
2019-02-15T00:11:26.704Z,6.10
2019-02-15T00:13:55.642Z,6.10
2019-02-15T00:16:25.574Z,6.20
2019-02-15T00:19:11.933Z,6.10
2019-02-15T00:21:43.826Z,6.10
2019-02-15T00:24:12.731Z,6.10
2019-02-15T00:26:41.637Z,6.00
2019-02-15T00:29:10.449Z,5.90
2019-02-15T00:31:39.741Z,6.00
2019-02-15T00:34:08.882Z,5.90
2019-02-15T00:36:37.817Z,5.80
2019-02-15T00:39:07.541Z,5.80
2019-02-15T00:41:36.434Z,5.80
2019-02-15T00:44:05.309Z,5.80
2019-02-15T00:46:56.123Z,5.70
2019-02-15T00:49:32.302Z,5.70
2019-02-15T00:52:08.824Z,5.70
2019-02-15T00:54:55.494Z,5.70
2019-02-15T00:57:41.545Z,5.70
2019-02-15T01:00:28.245Z,5.70
2019-02-15T01:03:28.311Z,5.60
2019-02-15T01:06:21.558Z,5.50
2019-02-15T01:09:03.459Z,5.50
2019-02-15T01:11:37.554Z,5.50
2019-02-15T01:14:06.543Z,5.50
2019-02-15T01:16:35.517Z,5.40
2019-02-15T01:19:04.506Z,5.40
2019-02-15T01:21:33.379Z,5.30
2019-02-15T01:24:02.311Z,5.30
2019-02-15T01:26:45.559Z,5.20
2019-02-15T01:29:39.367Z,5.30
2019-02-15T01:32:33.371Z,5.20
2019-02-15T01:35:25.302Z,5.20
2019-02-15T01:38:16.342Z,5.10
2019-02-15T01:41:16.547Z,5.10
2019-02-15T01:43:59.165Z,5.00
2019-02-15T01:46:39.537Z,4.80
2019-02-15T01:49:08.517Z,4.80
2019-02-15T01:51:37.628Z,4.70
2019-02-15T01:55:17.121Z,4.70
2019-02-15T01:59:07.621Z,4.60
2019-02-15T02:01:39.284Z,4.50
2019-02-15T02:04:24.249Z,4.50
2019-02-15T02:07:07.477Z,4.40
2019-02-15T02:09:37.531Z,4.30
2019-02-15T02:12:07.654Z,4.30
2019-02-15T02:20:48.426Z,4.30
2019-02-15T02:23:22.400Z,4.30
2019-02-15T02:25:52.765Z,4.20
2019-02-15T02:28:23.013Z,4.20
2019-02-15T02:30:52.445Z,4.20
2019-02-15T02:36:16.078Z,4.30
2019-02-15T02:38:45.788Z,4.20
2019-02-15T02:41:19.787Z,4.20
2019-02-15T02:46:42.877Z,4.10
2019-02-15T02:50:25.598Z,4.10
2019-02-15T02:52:54.975Z,4.00
2019-02-15T02:55:27.752Z,4.10
2019-02-15T03:00:36.952Z,4.20
2019-02-15T03:03:32.314Z,4.30
2019-02-15T03:10:13.671Z,4.30
2019-02-15T03:13:08.050Z,4.30
2019-02-15T03:18:42.389Z,4.20
2019-02-15T03:28:47.856Z,4.10
2019-02-15T03:31:23.644Z,4.00
2019-02-15T03:34:16.903Z,4.00
2019-02-15T03:37:28.082Z,4.00
2019-02-15T03:40:03.526Z,3.90
2019-02-15T03:42:33.812Z,4.00
2019-02-15T03:52:02.690Z,4.10
2019-02-15T03:54:55.755Z,4.10
2019-02-15T03:57:35.984Z,4.00
2019-02-15T04:06:41.451Z,3.80
2019-02-15T04:13:06.598Z,3.60
2019-02-15T04:19:01.432Z,3.50
2019-02-15T04:24:28.222Z,3.50
2019-02-15T04:27:06.647Z,3.40
2019-02-15T04:29:41.059Z,3.50
2019-02-15T04:32:13.193Z,3.40
2019-02-15T04:41:35.036Z,3.40
2019-02-15T04:47:21.011Z,3.50
2019-02-15T04:50:19.604Z,3.40
2019-02-15T04:56:19.545Z,3.40
2019-02-15T04:58:50.516Z,3.30
2019-02-15T05:05:32.512Z,3.30
2019-02-15T05:08:02.580Z,3.30
2019-02-15T05:10:34.030Z,3.30
2019-02-15T05:13:37.484Z,3.40
2019-02-15T05:16:08.163Z,3.40
2019-02-15T05:18:44.285Z,3.30
2019-02-15T05:21:14.501Z,3.30
2019-02-15T05:23:44.315Z,3.40
2019-02-15T05:26:14.170Z,3.40
2019-02-15T05:29:06.168Z,3.40
2019-02-15T05:31:40.422Z,3.40
2019-02-15T05:34:07.529Z,3.40
2019-02-15T05:37:05.976Z,3.40
2019-02-15T05:40:31.327Z,3.40
2019-02-15T05:43:01.371Z,3.40
2019-02-15T05:45:31.500Z,3.40
2019-02-15T05:48:01.181Z,3.40
2019-02-15T05:50:30.684Z,3.50
2019-02-15T05:53:00.110Z,3.50
2019-02-15T05:55:31.230Z,3.50
2019-02-15T06:07:14.138Z,3.60
2019-02-15T06:09:56.729Z,3.60
2019-02-15T06:12:31.993Z,3.70
2019-02-15T06:15:02.710Z,3.60
2019-02-15T06:21:28.976Z,3.60
2019-02-15T06:27:22.662Z,3.70
2019-02-15T06:29:58.699Z,3.60
2019-02-15T06:32:30.341Z,3.60
2019-02-15T06:34:59.879Z,3.50
2019-02-15T06:37:31.474Z,3.60
2019-02-15T06:40:01.757Z,3.50
2019-02-15T06:42:31.045Z,3.60
2019-02-15T06:45:03.949Z,3.70
2019-02-15T06:51:52.160Z,3.80
2019-02-15T06:54:21.609Z,3.80
2019-02-15T06:56:51.024Z,3.80
2019-02-15T06:59:49.191Z,3.90
2019-02-15T07:08:29.843Z,3.80
2019-02-15T07:10:59.206Z,3.90
2019-02-15T07:13:28.652Z,3.90
2019-02-15T07:15:59.546Z,4.00
2019-02-15T07:18:28.938Z,4.00
2019-02-15T07:20:58.082Z,3.90
2019-02-15T07:23:27.691Z,4.00
2019-02-15T07:25:56.991Z,4.20
2019-02-15T07:28:45.215Z,4.60
2019-02-15T07:31:18.385Z,5.00
2019-02-15T07:33:50.946Z,5.50
2019-02-15T07:36:26.400Z,5.80
2019-02-15T07:38:55.614Z,6.00
2019-02-15T07:41:42.237Z,6.30
2019-02-15T07:44:20.451Z,6.70
2019-02-15T07:49:42.731Z,7.30
2019-02-15T07:52:11.971Z,7.40
2019-02-15T07:54:40.959Z,7.50
2019-02-15T07:57:09.853Z,7.80
2019-02-15T07:59:38.697Z,7.90
2019-02-15T08:02:07.617Z,8.20
2019-02-15T08:04:36.402Z,8.40
2019-02-15T08:07:05.352Z,8.70
2019-02-15T08:09:34.228Z,8.90
2019-02-15T08:12:03.120Z,9.20
2019-02-15T08:14:32.026Z,9.40
2019-02-15T08:17:01.171Z,9.60
2019-02-15T08:19:30.072Z,9.70
2019-02-15T08:21:59.033Z,9.90
2019-02-15T08:24:27.970Z,9.90
2019-02-15T08:26:57.026Z,10.10
2019-02-15T08:29:26.185Z,10.30
2019-02-15T08:31:55.041Z,10.60
2019-02-15T08:34:23.913Z,10.70
2019-02-15T08:36:52.946Z,10.50
2019-02-15T08:39:21.875Z,10.70
2019-02-15T08:42:01.399Z,10.70
2019-02-15T08:44:21.367Z,10.90
2019-02-15T08:46:50.646Z,10.90
2019-02-15T08:49:19.673Z,11.10
2019-02-15T08:51:48.676Z,11.40
2019-02-15T08:54:17.481Z,11.30
2019-02-15T08:56:46.425Z,11.20
2019-02-15T08:59:15.254Z,11.30
2019-02-15T09:01:45.805Z,11.40
2019-02-15T09:04:14.762Z,11.80
2019-02-15T09:06:44.115Z,12.00
2019-02-15T09:09:13.074Z,12.10
2019-02-15T09:11:41.931Z,12.50
2019-02-15T09:14:10.770Z,12.40
2019-02-15T09:16:39.619Z,12.60
2019-02-15T09:19:08.540Z,13.00
2019-02-15T09:21:37.466Z,12.90
2019-02-15T09:24:06.388Z,13.00
2019-02-15T09:26:35.467Z,13.40
2019-02-15T09:29:07.547Z,13.70
2019-02-15T09:31:36.375Z,13.70
2019-02-15T09:34:05.300Z,13.80
2019-02-15T09:36:34.240Z,14.50
2019-02-15T09:39:03.721Z,14.30
2019-02-15T09:41:32.693Z,14.40
2019-02-15T09:44:01.909Z,14.30
2019-02-15T09:46:30.746Z,14.50
2019-02-15T09:48:59.830Z,14.30
2019-02-15T09:51:28.813Z,14.10
2019-02-15T09:53:57.665Z,13.70
2019-02-15T09:56:26.677Z,13.60
2019-02-15T09:58:55.626Z,13.70
2019-02-15T10:01:24.601Z,14.40
2019-02-15T10:03:55.219Z,14.90
2019-02-15T10:06:24.206Z,15.40
2019-02-15T10:08:53.115Z,15.50
2019-02-15T10:11:21.982Z,15.90
2019-02-15T10:13:50.913Z,15.90
2019-02-15T10:16:28.244Z,16.40
2019-02-15T10:18:50.528Z,17.00
2019-02-15T10:21:19.725Z,17.30
2019-02-15T10:23:48.610Z,17.10
2019-02-15T10:26:17.567Z,17.50
2019-02-15T10:28:46.427Z,17.30
2019-02-15T10:31:15.649Z,17.10
2019-02-15T10:33:44.831Z,17.60
2019-02-15T10:36:13.802Z,17.60
2019-02-15T10:38:42.725Z,17.70
2019-02-15T10:41:11.698Z,18.00
2019-02-15T10:43:40.598Z,18.00
2019-02-15T10:46:09.400Z,18.00
2019-02-15T10:48:38.968Z,18.60
2019-02-15T10:51:07.891Z,18.60
2019-02-15T10:53:37.156Z,18.90
2019-02-15T10:56:06.276Z,19.00
2019-02-15T10:58:35.201Z,18.50
2019-02-15T11:01:04.179Z,18.50
2019-02-15T11:03:33.054Z,18.90
2019-02-15T11:06:01.878Z,18.70
2019-02-15T11:08:30.753Z,19.20
2019-02-15T11:10:59.641Z,19.30
2019-02-15T11:13:28.965Z,19.40
2019-02-15T11:15:57.853Z,19.90
2019-02-15T11:18:26.774Z,19.90
2019-02-15T11:20:55.683Z,20.00
2019-02-15T11:23:24.606Z,20.80
2019-02-15T11:25:53.664Z,20.90
2019-02-15T11:28:22.530Z,20.90
2019-02-15T11:30:51.665Z,21.10
2019-02-15T11:33:20.523Z,21.10
2019-02-15T11:35:49.394Z,21.20
2019-02-15T11:38:18.307Z,21.20
2019-02-15T11:40:47.269Z,21.60
2019-02-15T11:43:16.194Z,21.90
2019-02-15T11:45:45.103Z,21.60
2019-02-15T11:48:13.993Z,22.00
2019-02-15T11:50:42.945Z,22.00
2019-02-15T11:53:11.874Z,21.70
2019-02-15T11:55:40.897Z,22.00
2019-02-15T11:58:09.840Z,22.50
2019-02-15T12:00:38.698Z,22.80
2019-02-15T12:03:07.743Z,22.50
2019-02-15T12:05:36.574Z,22.40
2019-02-15T12:08:05.658Z,23.00
2019-02-15T12:10:34.449Z,23.10
2019-02-15T12:13:03.265Z,22.90
2019-02-15T12:15:32.238Z,23.20
2019-02-15T12:18:01.072Z,23.10
2019-02-15T12:20:29.935Z,22.90
2019-02-15T12:22:58.782Z,22.60
2019-02-15T12:25:27.765Z,22.60
2019-02-15T12:27:56.754Z,23.10
2019-02-15T12:30:25.697Z,23.40
2019-02-15T12:32:54.567Z,23.50
2019-02-15T12:35:23.467Z,23.30
2019-02-15T12:37:52.439Z,23.70
2019-02-15T12:40:21.297Z,24.50
2019-02-15T12:42:50.125Z,24.40
2019-02-15T12:45:19.139Z,24.80
2019-02-15T12:47:47.980Z,24.30
2019-02-15T12:50:17.091Z,23.90
2019-02-15T12:52:46.187Z,23.60
2019-02-15T12:55:15.121Z,23.30
2019-02-15T12:57:44.253Z,23.60
2019-02-15T13:00:13.904Z,23.60
2019-02-15T13:02:42.869Z,23.60
2019-02-15T13:05:11.996Z,23.70
2019-02-15T13:07:41.002Z,23.40
2019-02-15T13:10:12.414Z,23.70
2019-02-15T13:12:41.506Z,23.90
2019-02-15T13:15:10.857Z,23.80
2019-02-15T13:17:39.866Z,23.50
2019-02-15T13:20:09.027Z,23.50
2019-02-15T13:22:38.034Z,24.30
2019-02-15T13:25:07.009Z,24.20
2019-02-15T13:27:35.963Z,24.60
2019-02-15T13:30:05.391Z,24.90
2019-02-15T13:32:34.319Z,24.90
2019-02-15T13:35:03.218Z,25.00
2019-02-15T13:37:32.130Z,25.10
2019-02-15T13:40:01.046Z,25.50
2019-02-15T13:42:30.055Z,25.80
2019-02-15T13:44:58.987Z,26.00
2019-02-15T13:47:34.591Z,25.80
2019-02-15T13:49:58.859Z,25.90
2019-02-15T13:52:27.761Z,25.70
2019-02-15T13:54:56.767Z,26.20
2019-02-15T13:57:26.333Z,26.40
2019-02-15T13:59:55.698Z,27.00
2019-02-15T14:02:25.255Z,27.30
2019-02-15T14:04:56.806Z,27.80
2019-02-15T14:07:30.896Z,28.20
2019-02-15T14:10:10.093Z,28.30
2019-02-15T14:12:45.621Z,29.40
2019-02-15T14:15:15.644Z,30.60
2019-02-15T14:17:48.214Z,31.40
2019-02-15T14:20:31.242Z,31.90
2019-02-15T14:23:10.439Z,31.90
2019-02-15T14:25:44.496Z,32.70
2019-02-15T14:28:13.962Z,31.90
2019-02-15T14:30:43.405Z,31.70
2019-02-15T14:33:13.017Z,31.80
2019-02-15T14:35:42.560Z,31.90
2019-02-15T14:38:20.607Z,32.10
2019-02-15T14:40:51.505Z,32.00
2019-02-15T14:43:21.099Z,29.10
2019-02-15T14:45:50.434Z,26.10
2019-02-15T14:48:20.182Z,24.90
2019-02-15T14:50:56.539Z,23.80
2019-02-15T14:56:25.583Z,22.40
2019-02-15T14:58:55.458Z,22.00
2019-02-15T15:01:28.432Z,21.90
2019-02-15T15:03:57.620Z,21.80
2019-02-15T15:06:27.236Z,21.60
2019-02-15T15:09:21.664Z,21.30
2019-02-15T15:11:57.482Z,21.00
2019-02-15T15:20:40.680Z,20.40
2019-02-15T15:23:13.524Z,20.20
2019-02-15T15:25:44.270Z,19.80
2019-02-15T15:28:51.028Z,19.80
2019-02-15T15:31:21.990Z,19.70
2019-02-15T15:34:05.346Z,19.40
2019-02-15T15:36:34.857Z,19.40
2019-02-15T15:39:05.824Z,19.20
2019-02-15T15:41:35.084Z,19.00
2019-02-15T15:44:04.599Z,19.00
2019-02-15T15:46:54.113Z,18.90
2019-02-15T15:49:23.738Z,18.70
2019-02-15T15:51:53.460Z,18.30
2019-02-15T15:54:25.323Z,18.10
2019-02-15T15:56:54.532Z,17.90
2019-02-15T15:59:26.803Z,17.80
2019-02-15T16:01:56.174Z,17.80
2019-02-15T16:04:25.672Z,17.70
2019-02-15T16:06:55.030Z,17.60
2019-02-15T16:09:24.390Z,17.40
2019-02-15T16:11:53.572Z,17.40
2019-02-15T16:14:23.055Z,17.20
2019-02-15T16:16:52.316Z,17.00
2019-02-15T16:19:21.664Z,17.00
2019-02-15T16:21:51.042Z,16.90
2019-02-15T16:24:20.508Z,16.80
2019-02-15T16:26:49.639Z,16.70
2019-02-15T16:29:18.841Z,16.60
2019-02-15T16:31:48.128Z,16.60
2019-02-15T16:34:28.308Z,16.60
2019-02-15T16:36:53.008Z,16.60
2019-02-15T16:39:22.229Z,16.40
2019-02-15T16:42:00.834Z,16.30
2019-02-15T16:44:36.057Z,16.20
2019-02-15T16:47:05.465Z,16.00
2019-02-15T16:49:38.536Z,15.90
2019-02-15T16:52:07.868Z,15.80
2019-02-15T16:54:37.216Z,15.70
2019-02-15T16:57:06.555Z,15.50
2019-02-15T16:59:36.119Z,15.60
2019-02-15T17:02:31.253Z,15.40
2019-02-15T17:05:05.889Z,15.40
2019-02-15T17:07:35.334Z,15.40
2019-02-15T17:10:04.936Z,15.40
2019-02-15T17:12:54.561Z,15.20
2019-02-15T17:15:32.638Z,15.10
2019-02-15T17:18:10.029Z,15.00
2019-02-15T17:20:45.513Z,14.90
2019-02-15T17:23:21.063Z,14.80
2019-02-15T17:25:50.375Z,14.70
2019-02-15T17:28:19.644Z,14.70
2019-02-15T17:31:34.527Z,14.60
2019-02-15T17:34:06.152Z,14.50
2019-02-15T17:36:37.256Z,14.40
2019-02-15T17:39:21.333Z,14.30
2019-02-15T17:41:54.289Z,14.10
2019-02-15T17:44:23.967Z,14.10
2019-02-15T17:47:06.631Z,14.10
2019-02-15T17:49:36.016Z,14.00
2019-02-15T17:52:10.404Z,14.00
2019-02-15T17:54:39.924Z,13.90
2019-02-15T17:57:12.046Z,13.90
2019-02-15T17:59:43.255Z,13.80
2019-02-15T18:02:27.380Z,13.80
2019-02-15T18:04:51.678Z,13.80
2019-02-15T18:07:25.682Z,13.80
2019-02-15T18:12:48.684Z,13.70
2019-02-15T18:15:29.481Z,13.70
2019-02-15T18:18:13.458Z,13.70
2019-02-15T18:20:43.221Z,13.60
2019-02-15T18:23:23.238Z,13.50
2019-02-15T18:25:52.694Z,13.40
2019-02-15T18:28:22.316Z,13.40
2019-02-15T18:30:51.957Z,13.40
2019-02-15T18:33:29.941Z,13.40
2019-02-15T18:36:06.672Z,13.30
2019-02-15T18:38:40.753Z,13.20
2019-02-15T18:41:20.694Z,13.20
2019-02-15T18:43:55.060Z,13.20
2019-02-15T18:46:27.878Z,13.20
2019-02-15T18:49:02.826Z,13.10
2019-02-15T18:51:32.949Z,13.10
2019-02-15T19:00:14.663Z,12.80
2019-02-15T19:06:04.262Z,12.70
2019-02-15T19:08:36.514Z,12.70
2019-02-15T19:11:24.417Z,12.60
2019-02-15T19:14:29.165Z,12.50
2019-02-15T19:17:14.478Z,12.50
2019-02-15T19:19:44.331Z,12.40
2019-02-15T19:22:40.778Z,12.30
2019-02-15T19:25:19.138Z,12.20
2019-02-15T19:27:55.662Z,12.20
2019-02-15T19:30:30.907Z,12.20
2019-02-15T19:33:11.370Z,12.10
2019-02-15T19:35:41.637Z,12.10
2019-02-15T19:38:31.184Z,12.00
2019-02-15T19:41:09.602Z,12.00
2019-02-15T19:44:28.325Z,12.00
2019-02-15T19:47:08.736Z,11.90
2019-02-15T19:50:20.997Z,12.00
2019-02-15T19:53:40.845Z,12.00
2019-02-15T19:56:22.186Z,11.80
2019-02-15T19:59:24.973Z,11.80
2019-02-15T20:01:54.302Z,11.80
2019-02-15T20:04:23.283Z,11.70
2019-02-15T20:06:52.435Z,11.60
2019-02-15T20:09:21.711Z,11.60
2019-02-15T20:11:51.827Z,11.60
2019-02-15T20:14:21.228Z,11.50
2019-02-15T20:16:50.424Z,11.40
2019-02-15T20:19:19.530Z,11.40
2019-02-15T20:21:48.566Z,11.40
2019-02-15T20:24:17.580Z,11.30
2019-02-15T20:26:46.730Z,11.30
2019-02-15T20:29:15.854Z,11.30
2019-02-15T20:31:44.800Z,11.20
2019-02-15T20:34:13.794Z,11.20
2019-02-15T20:36:43.063Z,11.20
2019-02-15T20:39:12.090Z,11.10
2019-02-15T20:41:41.098Z,11.10
2019-02-15T20:44:10.040Z,11.10
2019-02-15T20:46:39.022Z,11.10
2019-02-15T20:49:08.411Z,11.00
2019-02-15T20:51:37.637Z,11.10
2019-02-15T20:54:07.058Z,11.00
2019-02-15T20:56:36.192Z,11.10
2019-02-15T20:59:05.710Z,11.10
2019-02-15T21:01:34.832Z,11.00
2019-02-15T21:04:04.255Z,10.90
2019-02-15T21:06:33.400Z,10.90
2019-02-15T21:09:03.038Z,10.90
2019-02-15T21:11:32.286Z,10.70
2019-02-15T21:14:01.550Z,10.70
2019-02-15T21:16:31.070Z,10.70
2019-02-15T21:19:00.027Z,10.70
2019-02-15T21:21:29.183Z,10.70
2019-02-15T21:23:58.771Z,10.70
2019-02-15T21:26:28.124Z,10.60
2019-02-15T21:28:57.265Z,10.60
2019-02-15T21:31:26.390Z,10.50
2019-02-15T21:33:55.477Z,10.50
2019-02-15T21:36:24.431Z,10.40
2019-02-15T21:38:53.548Z,10.50
2019-02-15T21:41:22.694Z,10.50
2019-02-15T21:43:52.005Z,10.40
2019-02-15T21:46:21.195Z,10.40
2019-02-15T21:48:50.589Z,10.40
2019-02-15T21:51:19.780Z,10.40
2019-02-15T21:53:50.709Z,10.40
2019-02-15T21:56:20.017Z,10.40
2019-02-15T21:58:49.576Z,10.40
2019-02-15T22:01:18.514Z,10.20
2019-02-15T22:03:47.615Z,10.30
2019-02-15T22:06:16.859Z,10.20
2019-02-15T22:08:45.677Z,10.20
2019-02-15T22:11:14.534Z,10.10
2019-02-15T22:13:43.668Z,10.10
2019-02-15T22:16:12.920Z,10.00
2019-02-15T22:18:42.029Z,9.90
2019-02-15T22:21:11.150Z,9.90
2019-02-15T22:23:39.991Z,10.00
2019-02-15T22:26:08.917Z,10.00
2019-02-15T22:28:37.825Z,10.00
2019-02-15T22:31:06.898Z,10.00
2019-02-15T22:33:35.946Z,10.00
2019-02-15T22:36:04.912Z,9.90
2019-02-15T22:38:33.873Z,9.90
2019-02-15T22:41:17.021Z,9.90
2019-02-15T22:43:46.728Z,10.00
2019-02-15T22:46:15.643Z,10.10
2019-02-15T22:48:44.797Z,10.10
2019-02-15T22:51:13.736Z,10.00
2019-02-15T22:53:42.697Z,10.00
2019-02-15T22:56:11.529Z,10.00
2019-02-15T22:58:40.654Z,10.00
2019-02-15T23:01:18.544Z,9.90
2019-02-15T23:03:47.583Z,9.90
2019-02-15T23:06:16.541Z,10.00
2019-02-15T23:08:45.480Z,9.90
2019-02-15T23:11:14.429Z,9.80
2019-02-15T23:13:43.362Z,9.70
2019-02-15T23:16:12.200Z,9.70
2019-02-15T23:18:41.126Z,9.70
2019-02-15T23:21:10.421Z,9.70
2019-02-15T23:23:39.426Z,9.60
2019-02-15T23:26:08.430Z,9.70
2019-02-15T23:28:37.249Z,9.50
2019-02-15T23:31:06.166Z,9.40
2019-02-15T23:33:35.202Z,9.20
2019-02-15T23:36:04.129Z,9.20
2019-02-15T23:38:32.974Z,9.20
2019-02-15T23:41:01.929Z,9.20
2019-02-15T23:43:31.254Z,9.20
2019-02-15T23:46:00.339Z,9.00
2019-02-15T23:48:29.309Z,9.00
2019-02-15T23:50:58.264Z,9.00
2019-02-15T23:53:27.122Z,8.90
2019-02-15T23:55:56.073Z,8.90
2019-02-15T23:58:24.981Z,8.90
